createdAt,value
2023-03-16T00:02:05.122Z,22.20
2023-03-16T00:04:37.171Z,22.30
2023-03-16T00:07:04.972Z,22.40
2023-03-16T00:09:34.025Z,22.40
2023-03-16T00:12:03.020Z,22.50
2023-03-16T00:14:30.938Z,22.50
2023-03-16T00:16:58.670Z,22.60
2023-03-16T00:19:26.344Z,22.60
2023-03-16T00:21:54.096Z,22.70
2023-03-16T00:24:24.889Z,22.70
2023-03-16T00:26:54.779Z,22.80
2023-03-16T00:29:23.386Z,22.80
2023-03-16T00:31:52.159Z,22.80
2023-03-16T00:34:19.968Z,23.00
2023-03-16T00:36:47.622Z,23.00
2023-03-16T00:39:15.294Z,23.00
2023-03-16T00:41:42.956Z,23.10
2023-03-16T00:44:11.966Z,23.20
2023-03-16T00:46:39.646Z,23.20
2023-03-16T00:49:07.326Z,23.20
2023-03-16T00:51:35.000Z,23.30
2023-03-16T00:54:03.933Z,23.30
2023-03-16T00:56:31.683Z,23.40
2023-03-16T00:58:59.357Z,23.40
2023-03-16T01:01:28.396Z,23.50
2023-03-16T01:03:56.163Z,23.60
2023-03-16T01:06:23.808Z,23.60
2023-03-16T01:08:52.314Z,23.70
2023-03-16T01:11:21.833Z,23.80
2023-03-16T01:13:49.755Z,23.90
2023-03-16T01:16:18.782Z,24.10
2023-03-16T01:18:47.847Z,24.00
2023-03-16T01:21:15.533Z,24.10
2023-03-16T01:23:44.096Z,24.20
2023-03-16T01:26:13.161Z,24.20
2023-03-16T01:28:40.856Z,24.30
2023-03-16T01:31:09.746Z,24.40
2023-03-16T01:33:37.783Z,24.50
2023-03-16T01:36:12.081Z,24.50
2023-03-16T01:39:15.265Z,24.60
2023-03-16T01:41:46.813Z,24.60
2023-03-16T01:44:15.949Z,24.70
2023-03-16T01:46:44.305Z,24.80
2023-03-16T01:49:13.868Z,24.80
2023-03-16T01:51:46.171Z,24.90
2023-03-16T01:54:19.401Z,25.00
2023-03-16T01:56:51.732Z,25.10
2023-03-16T01:59:20.561Z,25.30
2023-03-16T02:01:48.477Z,25.30
2023-03-16T02:04:45.905Z,25.30
2023-03-16T02:07:17.927Z,25.50
2023-03-16T02:09:47.188Z,25.50
2023-03-16T02:12:18.119Z,25.60
2023-03-16T02:14:50.465Z,25.60
2023-03-16T02:17:19.350Z,25.70
2023-03-16T02:19:52.785Z,25.70
2023-03-16T02:22:24.900Z,25.70
2023-03-16T02:24:52.777Z,25.80
2023-03-16T02:27:23.266Z,25.90
2023-03-16T02:29:57.643Z,25.90
2023-03-16T02:32:27.332Z,26.00
2023-03-16T02:34:55.742Z,26.00
2023-03-16T02:37:23.425Z,26.00
2023-03-16T02:39:51.122Z,26.00
2023-03-16T02:42:22.032Z,26.10
2023-03-16T02:44:53.091Z,26.10
2023-03-16T02:47:31.019Z,26.10
2023-03-16T02:49:58.743Z,26.10
2023-03-16T02:52:27.041Z,26.20
2023-03-16T02:54:55.030Z,26.20
2023-03-16T02:57:22.690Z,26.20
2023-03-16T02:59:50.403Z,26.30
2023-03-16T03:02:18.113Z,26.30
2023-03-16T03:04:47.118Z,26.30
2023-03-16T03:07:14.887Z,26.30
2023-03-16T03:10:02.888Z,26.30
2023-03-16T03:12:32.253Z,26.30
2023-03-16T03:15:00.241Z,26.40
2023-03-16T03:17:34.006Z,26.30
2023-03-16T03:20:07.748Z,26.40
2023-03-16T03:22:35.445Z,26.40
2023-03-16T03:25:03.144Z,26.30
2023-03-16T03:27:30.933Z,26.40
2023-03-16T03:29:58.958Z,26.30
2023-03-16T03:32:28.278Z,26.40
2023-03-16T03:34:55.979Z,26.40
2023-03-16T03:37:25.333Z,26.40
2023-03-16T03:39:53.754Z,26.30
2023-03-16T03:42:23.742Z,26.30
2023-03-16T03:44:52.012Z,26.30
2023-03-16T03:47:20.390Z,26.30
2023-03-16T03:49:48.061Z,26.30
2023-03-16T03:52:16.170Z,26.30
2023-03-16T03:54:45.669Z,26.30
2023-03-16T03:57:16.203Z,26.30
2023-03-16T03:59:44.277Z,26.30
2023-03-16T04:02:38.581Z,26.30
2023-03-16T04:05:09.613Z,26.30
2023-03-16T04:07:37.673Z,26.30
2023-03-16T04:10:11.903Z,26.30
2023-03-16T04:12:42.809Z,26.20
2023-03-16T04:15:13.505Z,26.20
2023-03-16T04:17:52.673Z,26.10
2023-03-16T04:20:20.883Z,26.00
2023-03-16T04:22:49.204Z,26.00
2023-03-16T04:25:19.282Z,26.00
2023-03-16T04:27:49.293Z,26.00
2023-03-16T04:30:18.972Z,25.90
2023-03-16T04:32:52.353Z,25.90
2023-03-16T04:35:22.250Z,25.90
2023-03-16T04:37:54.369Z,25.90
2023-03-16T04:40:30.359Z,25.90
2023-03-16T04:43:07.430Z,25.90
2023-03-16T04:45:36.438Z,25.80
2023-03-16T04:48:04.928Z,25.70
2023-03-16T04:50:33.267Z,25.80
2023-03-16T04:53:01.655Z,25.70
2023-03-16T04:55:31.910Z,25.80
2023-03-16T04:57:59.780Z,25.80
2023-03-16T05:00:30.867Z,25.70
2023-03-16T05:03:04.699Z,25.70
2023-03-16T05:05:32.909Z,25.70
2023-03-16T05:08:01.441Z,25.60
2023-03-16T05:10:33.038Z,25.70
2023-03-16T05:13:01.476Z,25.60
2023-03-16T05:15:29.701Z,25.60
2023-03-16T05:18:06.438Z,25.50
2023-03-16T05:20:34.793Z,25.50
2023-03-16T05:23:03.561Z,25.40
2023-03-16T05:25:35.752Z,25.40
2023-03-16T05:28:06.702Z,25.30
2023-03-16T05:30:49.506Z,25.20
2023-03-16T05:33:22.678Z,25.20
2023-03-16T05:35:55.186Z,25.20
2023-03-16T05:38:22.964Z,25.10
2023-03-16T05:40:53.060Z,25.10
2023-03-16T05:43:34.275Z,25.10
2023-03-16T05:46:01.984Z,25.00
2023-03-16T05:48:29.854Z,25.00
2023-03-16T05:50:59.581Z,25.00
2023-03-16T05:53:29.974Z,25.00
2023-03-16T05:56:07.172Z,25.00
2023-03-16T05:58:39.135Z,24.90
2023-03-16T06:01:10.884Z,24.90
2023-03-16T06:03:38.645Z,24.80
2023-03-16T06:06:09.324Z,24.80
2023-03-16T06:08:48.414Z,24.80
2023-03-16T06:11:19.423Z,24.70
2023-03-16T06:13:48.615Z,24.70
2023-03-16T06:16:16.983Z,24.70
2023-03-16T06:18:44.815Z,24.70
2023-03-16T06:21:12.794Z,24.70
2023-03-16T06:23:41.679Z,24.60
2023-03-16T06:26:10.585Z,24.60
2023-03-16T06:28:43.066Z,24.60
2023-03-16T06:31:10.929Z,24.60
2023-03-16T06:33:39.003Z,24.60
2023-03-16T06:36:07.785Z,24.50
2023-03-16T06:38:40.336Z,24.50
2023-03-16T06:41:26.298Z,24.50
2023-03-16T06:43:55.678Z,24.50
2023-03-16T06:46:23.465Z,24.40
2023-03-16T06:48:51.467Z,24.40
2023-03-16T06:51:20.023Z,24.40
2023-03-16T06:53:48.868Z,24.40
2023-03-16T06:56:16.629Z,24.40
2023-03-16T06:58:46.484Z,24.30
2023-03-16T07:01:15.561Z,24.40
2023-03-16T07:03:43.317Z,24.40
2023-03-16T07:06:22.104Z,24.30
2023-03-16T07:08:49.778Z,24.30
2023-03-16T07:11:18.686Z,24.30
2023-03-16T07:13:46.377Z,24.30
2023-03-16T07:16:17.735Z,24.30
2023-03-16T07:18:45.434Z,24.30
2023-03-16T07:21:15.971Z,24.30
2023-03-16T07:23:44.657Z,24.30
2023-03-16T07:26:14.283Z,24.30
2023-03-16T07:28:51.546Z,24.30
2023-03-16T07:31:20.653Z,24.30
2023-03-16T07:33:49.085Z,24.30
2023-03-16T07:36:25.724Z,24.30
2023-03-16T07:38:57.550Z,24.30
2023-03-16T07:41:25.613Z,24.30
2023-03-16T07:43:53.317Z,24.20
2023-03-16T07:46:26.238Z,24.20
2023-03-16T07:48:54.032Z,24.10
2023-03-16T07:51:21.762Z,24.10
2023-03-16T07:53:50.989Z,24.10
2023-03-16T07:56:31.644Z,24.00
2023-03-16T07:59:07.357Z,24.00
2023-03-16T08:01:36.441Z,24.00
2023-03-16T08:04:04.435Z,24.00
2023-03-16T08:06:32.239Z,23.90
2023-03-16T08:09:01.823Z,23.90
2023-03-16T08:11:34.499Z,23.90
2023-03-16T08:14:05.365Z,23.90
2023-03-16T08:16:54.815Z,23.90
2023-03-16T08:19:22.826Z,23.90
2023-03-16T08:22:01.240Z,23.80
2023-03-16T08:24:34.173Z,23.80
2023-03-16T08:27:03.534Z,23.80
2023-03-16T08:29:34.284Z,23.80
2023-03-16T08:32:03.779Z,23.80
2023-03-16T08:34:39.824Z,23.80
2023-03-16T08:37:07.777Z,23.80
2023-03-16T08:39:35.957Z,23.80
2023-03-16T08:42:08.376Z,23.80
2023-03-16T08:44:44.369Z,23.70
2023-03-16T08:47:14.887Z,23.70
2023-03-16T08:49:45.018Z,23.80
2023-03-16T08:52:15.822Z,23.70
2023-03-16T08:54:59.872Z,23.70
2023-03-16T08:57:29.886Z,23.70
2023-03-16T08:59:57.584Z,23.70
2023-03-16T09:02:26.638Z,23.70
2023-03-16T09:04:54.643Z,23.80
2023-03-16T09:07:22.627Z,23.80
2023-03-16T09:09:50.781Z,23.80
2023-03-16T09:12:18.649Z,23.80
2023-03-16T09:14:46.541Z,23.80
2023-03-16T09:17:14.693Z,23.80
2023-03-16T09:19:52.860Z,23.80
2023-03-16T09:22:21.686Z,23.80
2023-03-16T09:24:49.628Z,23.80
2023-03-16T09:27:17.728Z,23.80
2023-03-16T09:29:45.561Z,23.80
2023-03-16T09:32:14.092Z,23.80
2023-03-16T09:34:44.649Z,23.80
2023-03-16T09:37:12.312Z,23.80
2023-03-16T09:39:40.278Z,23.80
2023-03-16T09:42:13.636Z,23.80
2023-03-16T09:44:44.438Z,23.80
2023-03-16T09:47:12.337Z,23.90
2023-03-16T09:49:43.791Z,23.90
2023-03-16T09:52:17.383Z,23.90
2023-03-16T09:54:49.301Z,24.00
2023-03-16T09:57:20.639Z,24.00
2023-03-16T09:59:48.309Z,24.00
2023-03-16T10:02:42.094Z,24.00
2023-03-16T10:05:12.178Z,24.00
2023-03-16T10:07:45.297Z,24.00
2023-03-16T10:10:24.505Z,24.00
2023-03-16T10:12:52.995Z,24.00
2023-03-16T10:15:22.419Z,23.90
2023-03-16T10:17:52.588Z,23.90
2023-03-16T10:20:22.621Z,23.90
2023-03-16T10:22:52.377Z,23.90
2023-03-16T10:25:21.446Z,24.00
2023-03-16T10:27:49.166Z,24.00
2023-03-16T10:30:24.425Z,24.00
2023-03-16T10:32:52.272Z,24.00
2023-03-16T10:35:28.770Z,24.00
2023-03-16T10:37:57.126Z,24.10
2023-03-16T10:40:24.816Z,24.00
2023-03-16T10:42:53.337Z,24.10
2023-03-16T10:45:25.209Z,24.10
2023-03-16T10:47:52.894Z,24.10
2023-03-16T10:50:27.632Z,24.10
2023-03-16T10:52:57.119Z,24.10
2023-03-16T10:55:28.896Z,24.10
2023-03-16T10:57:56.879Z,24.00
2023-03-16T11:00:28.807Z,24.00
2023-03-16T11:02:56.859Z,23.90
2023-03-16T11:05:31.347Z,24.00
2023-03-16T11:08:03.402Z,24.00
2023-03-16T11:10:33.364Z,23.90
2023-03-16T11:13:03.718Z,23.90
2023-03-16T11:15:37.276Z,23.90
2023-03-16T11:18:04.937Z,24.00
2023-03-16T11:20:34.392Z,23.90
2023-03-16T11:23:02.502Z,24.00
2023-03-16T11:25:33.679Z,24.00
2023-03-16T11:28:05.088Z,24.00
2023-03-16T11:30:35.584Z,24.00
2023-03-16T11:33:04.152Z,24.00
2023-03-16T11:35:46.646Z,24.00
2023-03-16T11:38:21.645Z,24.00
2023-03-16T11:40:55.889Z,24.00
2023-03-16T11:43:36.873Z,24.00
2023-03-16T11:46:11.080Z,24.10
2023-03-16T11:48:39.873Z,24.10
2023-03-16T11:51:12.578Z,24.10
2023-03-16T11:53:48.342Z,24.20
2023-03-16T11:56:19.967Z,24.20
2023-03-16T11:58:58.715Z,24.20
2023-03-16T12:01:29.694Z,24.30
2023-03-16T12:04:07.538Z,24.40
2023-03-16T12:06:42.181Z,24.40
2023-03-16T12:09:42.557Z,24.50
2023-03-16T12:12:16.693Z,24.60
2023-03-16T12:14:46.042Z,24.70
2023-03-16T12:17:15.691Z,24.90
2023-03-16T12:19:45.746Z,25.00
2023-03-16T12:22:18.413Z,25.10
2023-03-16T12:24:46.922Z,25.30
2023-03-16T12:27:17.521Z,25.40
2023-03-16T12:29:55.886Z,25.40
2023-03-16T12:32:31.051Z,25.40
2023-03-16T12:35:02.732Z,25.30
2023-03-16T12:37:35.856Z,25.30
2023-03-16T12:40:10.901Z,25.30
2023-03-16T12:43:01.278Z,25.30
2023-03-16T12:45:32.928Z,25.30
2023-03-16T12:48:04.385Z,25.20
2023-03-16T12:50:32.956Z,25.30
2023-03-16T12:53:01.961Z,25.20
2023-03-16T12:55:41.015Z,25.20
2023-03-16T12:58:09.139Z,25.00
2023-03-16T13:00:37.701Z,24.80
2023-03-16T13:03:06.192Z,24.80
2023-03-16T13:05:34.734Z,24.60
2023-03-16T13:08:09.421Z,24.50
2023-03-16T13:10:37.492Z,24.80
2023-03-16T13:13:12.856Z,25.00
2023-03-16T13:15:40.727Z,25.20
2023-03-16T13:18:22.758Z,25.10
2023-03-16T13:20:53.711Z,24.90
2023-03-16T13:23:24.141Z,24.90
2023-03-16T13:26:04.148Z,24.50
2023-03-16T13:28:32.941Z,24.20
2023-03-16T13:31:00.708Z,24.30
2023-03-16T13:33:29.533Z,24.10
2023-03-16T13:35:58.558Z,24.00
2023-03-16T13:38:28.466Z,24.00
2023-03-16T13:40:57.489Z,24.30
2023-03-16T13:43:28.623Z,24.10
2023-03-16T13:45:56.576Z,23.70
2023-03-16T13:48:24.299Z,23.80
2023-03-16T13:50:52.484Z,23.80
2023-03-16T13:53:22.768Z,23.90
2023-03-16T13:55:51.767Z,23.90
2023-03-16T13:58:25.813Z,23.80
2023-03-16T14:00:56.582Z,23.70
2023-03-16T14:03:24.619Z,23.80
2023-03-16T14:05:52.283Z,23.90
2023-03-16T14:08:20.920Z,23.90
2023-03-16T14:10:48.659Z,23.70
2023-03-16T14:13:39.110Z,23.60
2023-03-16T14:16:11.940Z,23.60
2023-03-16T14:18:42.029Z,23.70
2023-03-16T14:21:10.674Z,23.70
2023-03-16T14:23:40.025Z,23.50
2023-03-16T14:26:10.109Z,23.50
2023-03-16T14:28:39.369Z,23.40
2023-03-16T14:31:09.856Z,23.30
2023-03-16T14:33:40.049Z,23.40
2023-03-16T14:36:14.712Z,23.50
2023-03-16T14:38:43.647Z,23.50
2023-03-16T14:41:19.549Z,23.40
2023-03-16T14:43:49.844Z,23.60
2023-03-16T14:46:25.488Z,23.50
2023-03-16T14:48:53.220Z,23.40
2023-03-16T14:51:20.895Z,23.30
2023-03-16T14:53:48.655Z,23.30
2023-03-16T14:56:16.473Z,23.30
2023-03-16T14:58:44.200Z,23.00
2023-03-16T15:01:14.450Z,22.90
2023-03-16T15:03:42.676Z,22.80
2023-03-16T15:06:10.329Z,22.50
2023-03-16T15:08:43.462Z,22.40
2023-03-16T15:11:11.129Z,22.30
2023-03-16T15:14:03.671Z,22.40
2023-03-16T15:16:34.144Z,22.20
2023-03-16T15:19:02.154Z,22.00
2023-03-16T15:21:32.922Z,22.10
2023-03-16T15:24:00.918Z,22.00
2023-03-16T15:26:29.166Z,22.20
2023-03-16T15:28:57.372Z,22.30
2023-03-16T15:31:25.402Z,22.40
2023-03-16T15:33:54.448Z,22.60
2023-03-16T15:36:24.137Z,22.50
2023-03-16T15:38:52.678Z,22.50
2023-03-16T15:41:20.469Z,22.30
2023-03-16T15:43:48.166Z,22.40
2023-03-16T15:46:16.484Z,22.50
2023-03-16T15:48:44.339Z,22.40
2023-03-16T15:51:19.563Z,22.40
2023-03-16T15:53:49.760Z,22.40
2023-03-16T15:56:19.367Z,22.50
2023-03-16T15:58:47.196Z,22.50
2023-03-16T16:01:18.851Z,22.50
2023-03-16T16:03:47.059Z,22.70
2023-03-16T16:06:16.395Z,22.90
2023-03-16T16:08:44.179Z,23.10
2023-03-16T16:11:14.033Z,23.20
2023-03-16T16:13:44.974Z,23.40
2023-03-16T16:16:13.573Z,23.60
2023-03-16T16:18:41.463Z,23.60
2023-03-16T16:21:15.004Z,23.70
2023-03-16T16:23:44.009Z,23.80
2023-03-16T16:26:21.824Z,23.90
2023-03-16T16:28:49.494Z,24.00
2023-03-16T16:31:17.226Z,24.00
2023-03-16T16:33:45.027Z,24.10
2023-03-16T16:36:15.002Z,24.20
2023-03-16T16:38:44.100Z,24.20
2023-03-16T16:41:21.581Z,24.30
2023-03-16T16:43:49.295Z,24.70
2023-03-16T16:46:18.637Z,24.50
2023-03-16T16:48:47.304Z,24.30
2023-03-16T16:51:17.457Z,24.10
2023-03-16T16:53:46.617Z,24.00
2023-03-16T16:56:15.387Z,23.70
2023-03-16T16:58:43.155Z,23.60
2023-03-16T17:01:14.134Z,23.40
2023-03-16T17:03:41.910Z,23.30
2023-03-16T17:06:15.373Z,23.20
2023-03-16T17:08:43.490Z,23.20
2023-03-16T17:11:15.333Z,23.10
2023-03-16T17:13:43.959Z,23.20
2023-03-16T17:16:14.837Z,22.80
2023-03-16T17:18:44.778Z,22.90
2023-03-16T17:21:14.591Z,23.00
2023-03-16T17:23:42.629Z,22.90
2023-03-16T17:26:15.876Z,22.70
2023-03-16T17:28:45.479Z,22.60
2023-03-16T17:31:13.593Z,22.50
2023-03-16T17:33:41.290Z,22.50
2023-03-16T17:36:11.441Z,22.50
2023-03-16T17:38:39.184Z,22.40
2023-03-16T17:41:06.932Z,22.20
2023-03-16T17:43:36.032Z,22.40
2023-03-16T17:46:04.291Z,22.20
2023-03-16T17:48:32.016Z,22.20
2023-03-16T17:50:59.709Z,22.20
2023-03-16T17:53:27.645Z,22.20
2023-03-16T17:55:55.552Z,22.10
2023-03-16T17:58:25.694Z,22.10
2023-03-16T18:00:54.999Z,22.10
2023-03-16T18:03:23.250Z,22.10
2023-03-16T18:05:51.354Z,22.10
2023-03-16T18:08:20.907Z,22.00
2023-03-16T18:10:50.351Z,22.00
2023-03-16T18:13:19.985Z,21.90
2023-03-16T18:15:49.123Z,21.70
2023-03-16T18:18:21.238Z,21.70
2023-03-16T18:20:49.037Z,21.90
2023-03-16T18:23:18.729Z,22.10
2023-03-16T18:25:46.965Z,22.00
2023-03-16T18:28:15.683Z,22.20
2023-03-16T18:30:44.613Z,22.30
2023-03-16T18:33:35.280Z,22.30
2023-03-16T18:36:04.875Z,22.50
2023-03-16T18:38:33.863Z,22.50
2023-03-16T18:41:02.577Z,22.20
2023-03-16T18:43:30.829Z,22.30
2023-03-16T18:45:58.742Z,22.30
2023-03-16T18:48:29.202Z,22.40
2023-03-16T18:50:58.520Z,22.50
2023-03-16T18:53:26.600Z,22.50
2023-03-16T18:55:57.329Z,22.70
2023-03-16T18:58:25.585Z,22.70
2023-03-16T19:00:54.762Z,22.80
2023-03-16T19:03:24.458Z,22.80
2023-03-16T19:05:52.603Z,22.80
2023-03-16T19:08:22.012Z,22.80
2023-03-16T19:10:51.243Z,22.90
2023-03-16T19:13:21.508Z,23.00
2023-03-16T19:15:49.514Z,23.00
2023-03-16T19:18:17.248Z,23.10
2023-03-16T19:20:46.657Z,23.10
2023-03-16T19:23:18.816Z,23.20
2023-03-16T19:25:47.978Z,23.40
2023-03-16T19:28:16.847Z,23.40
2023-03-16T19:30:45.652Z,23.30
2023-03-16T19:33:18.589Z,23.30
2023-03-16T19:35:51.836Z,23.30
2023-03-16T19:38:20.438Z,23.30
2023-03-16T19:40:50.659Z,23.20
2023-03-16T19:43:19.097Z,23.30
2023-03-16T19:49:45.942Z,23.30
2023-03-16T19:52:13.606Z,23.30
2023-03-16T19:54:43.980Z,23.30
2023-03-16T19:58:13.303Z,23.30
2023-03-16T20:00:42.668Z,23.30
2023-03-16T20:03:10.975Z,23.20
2023-03-16T20:05:39.716Z,23.20
2023-03-16T20:08:57.289Z,23.10
2023-03-16T20:11:27.101Z,23.00
2023-03-16T20:13:54.789Z,23.00
2023-03-16T20:16:26.262Z,23.10
2023-03-16T20:18:54.946Z,23.10
2023-03-16T20:21:22.652Z,23.20
2023-03-16T20:23:50.352Z,23.20
2023-03-16T20:26:19.440Z,23.20
2023-03-16T20:28:48.241Z,23.30
2023-03-16T20:31:18.718Z,23.20
2023-03-16T20:33:48.156Z,23.20
2023-03-16T20:36:16.524Z,23.30
2023-03-16T20:38:44.211Z,23.30
2023-03-16T20:41:16.334Z,23.30
2023-03-16T20:43:44.016Z,23.30
2023-03-16T20:46:16.158Z,23.30
2023-03-16T20:48:43.981Z,23.20
2023-03-16T20:51:15.431Z,23.20
2023-03-16T20:53:44.614Z,23.20
2023-03-16T20:56:16.383Z,23.20
2023-03-16T20:58:46.811Z,23.20
2023-03-16T21:01:17.598Z,23.20
2023-03-16T21:03:47.304Z,23.20
2023-03-16T21:06:23.358Z,23.10
2023-03-16T21:08:52.239Z,23.10
2023-03-16T21:11:24.410Z,23.10
2023-03-16T21:13:52.236Z,23.10
2023-03-16T21:16:20.774Z,23.10
2023-03-16T21:18:48.882Z,23.10
2023-03-16T21:21:16.681Z,23.10
2023-03-16T21:23:46.089Z,23.00
2023-03-16T21:26:16.248Z,23.10
2023-03-16T21:28:44.314Z,23.00
2023-03-16T21:31:18.246Z,23.00
2023-03-16T21:33:48.182Z,23.00
2023-03-16T21:36:17.331Z,23.00
2023-03-16T21:38:46.781Z,22.90
2023-03-16T21:41:14.874Z,22.90
2023-03-16T21:43:42.963Z,22.90
2023-03-16T21:46:15.949Z,22.80
2023-03-16T21:48:44.520Z,22.90
2023-03-16T21:51:14.206Z,22.80
2023-03-16T21:53:42.237Z,22.80
2023-03-16T21:56:15.371Z,22.80
2023-03-16T21:58:43.246Z,22.80
2023-03-16T22:01:18.099Z,22.80
2023-03-16T22:03:51.018Z,22.80
2023-03-16T22:06:19.080Z,22.70
2023-03-16T22:08:46.980Z,22.70
2023-03-16T22:11:16.980Z,22.70
2023-03-16T22:13:44.665Z,22.70
2023-03-16T22:16:14.829Z,22.70
2023-03-16T22:18:42.698Z,22.70
2023-03-16T22:21:26.246Z,22.70
2023-03-16T22:23:54.201Z,22.70
2023-03-16T22:26:24.059Z,22.60
2023-03-16T22:28:52.384Z,22.60
2023-03-16T22:31:21.333Z,22.60
2023-03-16T22:33:49.482Z,22.60
2023-03-16T22:36:18.661Z,22.60
2023-03-16T22:38:46.415Z,22.60
2023-03-16T22:41:15.554Z,22.60
2023-03-16T22:43:45.111Z,22.60
2023-03-16T22:46:17.485Z,22.60
2023-03-16T22:48:45.347Z,22.60
2023-03-16T22:51:17.415Z,22.60
2023-03-16T22:53:45.501Z,22.60
2023-03-16T22:56:13.385Z,22.60
2023-03-16T22:58:42.442Z,22.50
2023-03-16T23:01:15.659Z,22.60
2023-03-16T23:03:44.092Z,22.60
2023-03-16T23:06:16.982Z,22.50
2023-03-16T23:08:44.680Z,22.60
2023-03-16T23:11:15.721Z,22.50
2023-03-16T23:13:43.688Z,22.50
2023-03-16T23:16:18.108Z,22.50
2023-03-16T23:18:46.723Z,22.50
2023-03-16T23:21:15.053Z,22.50
2023-03-16T23:23:46.226Z,22.50
2023-03-16T23:26:19.630Z,22.50
2023-03-16T23:28:47.446Z,22.60
2023-03-16T23:31:17.176Z,22.50
2023-03-16T23:33:45.038Z,22.50
2023-03-16T23:36:14.112Z,22.50
2023-03-16T23:38:41.911Z,22.50
2023-03-16T23:41:09.904Z,22.50
2023-03-16T23:43:37.605Z,22.50
2023-03-16T23:46:05.775Z,22.50
2023-03-16T23:48:34.782Z,22.60
2023-03-16T23:51:03.761Z,22.50
2023-03-16T23:53:31.442Z,22.60
2023-03-16T23:55:59.812Z,22.60
2023-03-16T23:58:27.523Z,22.60
